sensor_id;sensor_type;location;lat;lon;timestamp;pressure;altitude;pressure_sealevel;temperature;humidity
55187;BME280;55457;52.002;5.464;2022-08-11T00:00:01;102131.63;;;26.16;43.09
55187;BME280;55457;52.002;5.464;2022-08-11T00:02:33;102126.16;;;26.16;43.22
55187;BME280;55457;52.002;5.464;2022-08-11T00:05:11;102127.19;;;26.15;43.41
55187;BME280;55457;52.002;5.464;2022-08-11T00:07:51;102125.81;;;26.13;43.06
55187;BME280;55457;52.002;5.464;2022-08-11T00:10:20;102120.34;;;26.13;43.32
55187;BME280;55457;52.002;5.464;2022-08-11T00:12:55;102122.00;;;26.14;43.18
55187;BME280;55457;52.002;5.464;2022-08-11T00:15:22;102120.09;;;26.14;43.33
55187;BME280;55457;52.002;5.464;2022-08-11T00:17:49;102122.81;;;26.14;43.32
55187;BME280;55457;52.002;5.464;2022-08-11T00:20:20;102120.09;;;26.14;43.35
55187;BME280;55457;52.002;5.464;2022-08-11T00:22:46;102116.78;;;26.12;43.38
55187;BME280;55457;52.002;5.464;2022-08-11T00:25:19;102126.63;;;26.13;43.31
55187;BME280;55457;52.002;5.464;2022-08-11T00:27:46;102119.53;;;26.12;43.43
55187;BME280;55457;52.002;5.464;2022-08-11T00:30:12;102133.19;;;26.12;43.44
55187;BME280;55457;52.002;5.464;2022-08-11T00:32:40;102121.69;;;26.10;43.12
55187;BME280;55457;52.002;5.464;2022-08-11T00:35:10;102124.16;;;26.12;43.45
55187;BME280;55457;52.002;5.464;2022-08-11T00:37:37;102124.16;;;26.12;42.96
55187;BME280;55457;52.002;5.464;2022-08-11T00:40:07;102124.16;;;26.12;43.41
55187;BME280;55457;52.002;5.464;2022-08-11T00:43:00;102125.25;;;26.11;43.29
55187;BME280;55457;52.002;5.464;2022-08-11T00:45:39;102132.63;;;26.10;43.37
55187;BME280;55457;52.002;5.464;2022-08-11T00:48:19;102133.44;;;26.11;43.19
55187;BME280;55457;52.002;5.464;2022-08-11T00:51:16;102129.88;;;26.10;43.32
55187;BME280;55457;52.002;5.464;2022-08-11T01:01:56;102134.75;;;26.08;43.30
55187;BME280;55457;52.002;5.464;2022-08-11T01:09:51;102127.66;;;26.07;43.27
55187;BME280;55457;52.002;5.464;2022-08-11T01:12:39;102125.75;;;26.08;43.48
55187;BME280;55457;52.002;5.464;2022-08-11T01:29:27;102132.28;;;26.07;43.42
55187;BME280;55457;52.002;5.464;2022-08-11T01:35:17;102117.22;;;26.04;43.42
55187;BME280;55457;52.002;5.464;2022-08-11T01:44:10;102112.84;;;26.03;43.54
55187;BME280;55457;52.002;5.464;2022-08-11T01:47:18;102123.75;;;26.03;43.48
55187;BME280;55457;52.002;5.464;2022-08-11T01:50:25;102116.66;;;26.02;43.56
55187;BME280;55457;52.002;5.464;2022-08-11T01:53:10;102121.03;;;26.03;43.50
55187;BME280;55457;52.002;5.464;2022-08-11T01:55:52;102113.91;;;26.02;43.44
55187;BME280;55457;52.002;5.464;2022-08-11T02:01:04;102113.34;;;26.00;43.47
55187;BME280;55457;52.002;5.464;2022-08-11T02:06:15;102111.44;;;26.00;43.41
55187;BME280;55457;52.002;5.464;2022-08-11T02:09:32;102113.34;;;26.00;43.52
55187;BME280;55457;52.002;5.464;2022-08-11T02:15:13;102119.88;;;25.99;43.47
55187;BME280;55457;52.002;5.464;2022-08-11T02:17:49;102115.22;;;25.99;43.63
55187;BME280;55457;52.002;5.464;2022-08-11T02:23:11;102119.88;;;25.99;43.48
55187;BME280;55457;52.002;5.464;2022-08-11T02:34:27;102109.47;;;25.96;43.56
55187;BME280;55457;52.002;5.464;2022-08-11T02:39:45;102102.91;;;25.97;43.68
55187;BME280;55457;52.002;5.464;2022-08-11T02:45:36;102109.47;;;25.96;43.58
55187;BME280;55457;52.002;5.464;2022-08-11T02:54:31;102103.19;;;25.95;43.66
55187;BME280;55457;52.002;5.464;2022-08-11T02:57:04;102102.34;;;25.95;43.80
55187;BME280;55457;52.002;5.464;2022-08-11T02:59:45;102093.31;;;25.94;43.71
55187;BME280;55457;52.002;5.464;2022-08-11T03:11:06;102099.63;;;25.95;43.63
55187;BME280;55457;52.002;5.464;2022-08-11T03:20:32;102100.69;;;25.94;43.63
55187;BME280;55457;52.002;5.464;2022-08-11T03:23:10;102090.84;;;25.93;43.54
55187;BME280;55457;52.002;5.464;2022-08-11T03:28:44;102086.47;;;25.92;43.77
55187;BME280;55457;52.002;5.464;2022-08-11T03:31:45;102090.00;;;25.92;43.66
55187;BME280;55457;52.002;5.464;2022-08-11T03:34:17;102093.00;;;25.91;43.41
55187;BME280;55457;52.002;5.464;2022-08-11T03:37:05;102094.66;;;25.92;43.61
55187;BME280;55457;52.002;5.464;2022-08-11T03:39:58;102096.56;;;25.91;43.84
55187;BME280;55457;52.002;5.464;2022-08-11T03:42:56;102095.72;;;25.91;43.76
55187;BME280;55457;52.002;5.464;2022-08-11T03:45:27;102090.50;;;25.89;43.69
55187;BME280;55457;52.002;5.464;2022-08-11T03:48:12;102094.66;;;25.92;43.82
55187;BME280;55457;52.002;5.464;2022-08-11T03:59:11;102090.50;;;25.89;43.84
55187;BME280;55457;52.002;5.464;2022-08-11T04:07:26;102084.22;;;25.89;43.75
55187;BME280;55457;52.002;5.464;2022-08-11T04:13:18;102088.03;;;25.88;43.97
55187;BME280;55457;52.002;5.464;2022-08-11T04:22:10;102083.38;;;25.88;43.88
55187;BME280;55457;52.002;5.464;2022-08-11T04:38:51;102076.53;;;25.86;44.02
55187;BME280;55457;52.002;5.464;2022-08-11T04:47:50;102084.47;;;25.87;43.82
55187;BME280;55457;52.002;5.464;2022-08-11T04:50:56;102082.81;;;25.86;43.92
55187;BME280;55457;52.002;5.464;2022-08-11T04:53:59;102084.72;;;25.86;43.97
55187;BME280;55457;52.002;5.464;2022-08-11T04:56:47;102078.69;;;25.84;43.94
55187;BME280;55457;52.002;5.464;2022-08-11T05:13:31;102076.53;;;25.86;44.00
55187;BME280;55457;52.002;5.464;2022-08-11T05:16:25;102072.16;;;25.85;43.91
55187;BME280;55457;52.002;5.464;2022-08-11T05:19:15;102080.91;;;25.87;43.90
55187;BME280;55457;52.002;5.464;2022-08-11T05:22:01;102080.34;;;25.85;43.88
55187;BME280;55457;52.002;5.464;2022-08-11T05:24:49;102080.34;;;25.85;44.01
55187;BME280;55457;52.002;5.464;2022-08-11T05:27:38;102085.81;;;25.85;43.99
55187;BME280;55457;52.002;5.464;2022-08-11T05:30:26;102080.34;;;25.85;43.84
55187;BME280;55457;52.002;5.464;2022-08-11T05:33:15;102076.81;;;25.84;43.97
55187;BME280;55457;52.002;5.464;2022-08-11T05:36:15;102081.41;;;25.84;43.90
55187;BME280;55457;52.002;5.464;2022-08-11T05:38:50;102084.13;;;25.84;43.92
55187;BME280;55457;52.002;5.464;2022-08-11T05:41:37;102086.88;;;25.84;43.93
55187;BME280;55457;52.002;5.464;2022-08-11T05:44:21;102091.28;;;25.85;44.10
55187;BME280;55457;52.002;5.464;2022-08-11T05:47:06;102085.22;;;25.83;43.94
55187;BME280;55457;52.002;5.464;2022-08-11T05:49:50;102095.06;;;25.84;43.96
55187;BME280;55457;52.002;5.464;2022-08-11T05:52:35;102095.06;;;25.84;43.83
55187;BME280;55457;52.002;5.464;2022-08-11T05:55:22;102091.50;;;25.83;43.99
55187;BME280;55457;52.002;5.464;2022-08-11T05:58:07;102100.53;;;25.84;44.16
55187;BME280;55457;52.002;5.464;2022-08-11T06:00:42;102102.19;;;25.85;44.13
55187;BME280;55457;52.002;5.464;2022-08-11T06:03:10;102099.69;;;25.83;43.93
55187;BME280;55457;52.002;5.464;2022-08-11T06:05:38;102097.78;;;25.84;44.12
55187;BME280;55457;52.002;5.464;2022-08-11T06:08:06;102090.47;;;25.84;43.90
55187;BME280;55457;52.002;5.464;2022-08-11T06:10:34;102084.13;;;25.84;43.93
55187;BME280;55457;52.002;5.464;2022-08-11T06:13:01;102098.66;;;25.84;43.96
55187;BME280;55457;52.002;5.464;2022-08-11T06:15:29;102098.66;;;25.84;44.21
55187;BME280;55457;52.002;5.464;2022-08-11T06:17:56;102100.53;;;25.84;44.11
55187;BME280;55457;52.002;5.464;2022-08-11T06:20:23;102113.13;;;25.85;44.04
55187;BME280;55457;52.002;5.464;2022-08-11T06:22:59;102106.84;;;25.84;44.14
55187;BME280;55457;52.002;5.464;2022-08-11T06:25:30;102102.19;;;25.85;44.18
55187;BME280;55457;52.002;5.464;2022-08-11T06:27:57;102107.66;;;25.85;43.98
55187;BME280;55457;52.002;5.464;2022-08-11T06:30:32;102103.03;;;25.85;43.92
55187;BME280;55457;52.002;5.464;2022-08-11T06:32:59;102112.03;;;25.86;43.85
55187;BME280;55457;52.002;5.464;2022-08-11T06:35:37;102101.13;;;25.86;44.02
55187;BME280;55457;52.002;5.464;2022-08-11T06:40:42;102101.69;;;25.88;43.82
55187;BME280;55457;52.002;5.464;2022-08-11T06:46:28;102097.88;;;25.89;44.00
55187;BME280;55457;52.002;5.464;2022-08-11T06:48:54;102103.09;;;25.90;43.90
55187;BME280;55457;52.002;5.464;2022-08-11T06:51:21;102100.38;;;25.90;44.03
55187;BME280;55457;52.002;5.464;2022-08-11T06:53:52;102103.34;;;25.89;43.97
55187;BME280;55457;52.002;5.464;2022-08-11T06:56:24;102101.19;;;25.91;43.94
55187;BME280;55457;52.002;5.464;2022-08-11T06:59:09;102094.66;;;25.92;43.97
55187;BME280;55457;52.002;5.464;2022-08-11T07:04:43;102099.03;;;25.93;44.03
55187;BME280;55457;52.002;5.464;2022-08-11T07:13:26;102102.34;;;25.95;43.87
55187;BME280;55457;52.002;5.464;2022-08-11T07:16:17;102101.50;;;25.94;44.04
55187;BME280;55457;52.002;5.464;2022-08-11T07:18:46;102107.81;;;25.95;43.82
55187;BME280;55457;52.002;5.464;2022-08-11T07:21:34;102108.63;;;25.95;43.81
55187;BME280;55457;52.002;5.464;2022-08-11T07:24:27;102107.56;;;25.96;43.90
55187;BME280;55457;52.002;5.464;2022-08-11T07:27:18;102104.81;;;25.96;43.85
55187;BME280;55457;52.002;5.464;2022-08-11T07:30:07;102113.84;;;25.97;44.00
55187;BME280;55457;52.002;5.464;2022-08-11T07:32:37;102110.84;;;25.98;43.82
55187;BME280;55457;52.002;5.464;2022-08-11T07:35:10;102108.94;;;25.99;43.95
55187;BME280;55457;52.002;5.464;2022-08-11T07:37:41;102113.59;;;25.98;44.05
55187;BME280;55457;52.002;5.464;2022-08-11T07:40:08;102104.31;;;25.99;43.90
55187;BME280;55457;52.002;5.464;2022-08-11T07:42:35;102110.63;;;26.00;43.92
55187;BME280;55457;52.002;5.464;2022-08-11T07:45:04;102106.53;;;26.02;43.81
55187;BME280;55457;52.002;5.464;2022-08-11T07:47:49;102109.28;;;26.02;43.87
55187;BME280;55457;52.002;5.464;2022-08-11T07:50:39;102102.16;;;26.01;44.05
55187;BME280;55457;52.002;5.464;2022-08-11T07:53:23;102101.34;;;26.01;43.96
55187;BME280;55457;52.002;5.464;2022-08-11T07:55:52;102092.56;;;25.99;43.85
55187;BME280;55457;52.002;5.464;2022-08-11T07:58:21;102101.56;;;25.99;44.08
55187;BME280;55457;52.002;5.464;2022-08-11T08:01:06;102105.16;;;26.00;44.14
55187;BME280;55457;52.002;5.464;2022-08-11T08:03:50;102092.56;;;25.99;44.05
55187;BME280;55457;52.002;5.464;2022-08-11T08:06:36;102092.56;;;25.99;44.03
55187;BME280;55457;52.002;5.464;2022-08-11T08:09:21;102094.22;;;26.00;44.01
55187;BME280;55457;52.002;5.464;2022-08-11T08:12:07;102098.84;;;25.99;44.11
55187;BME280;55457;52.002;5.464;2022-08-11T08:14:52;102100.53;;;26.00;44.16
55187;BME280;55457;52.002;5.464;2022-08-11T08:17:39;102093.38;;;25.99;43.95
55187;BME280;55457;52.002;5.464;2022-08-11T08:20:20;102099.19;;;26.03;44.01
55187;BME280;55457;52.002;5.464;2022-08-11T08:22:50;102100.25;;;26.02;44.02
55187;BME280;55457;52.002;5.464;2022-08-11T08:25:22;102096.44;;;26.03;43.99
55187;BME280;55457;52.002;5.464;2022-08-11T08:27:49;102102.50;;;26.05;44.02
55187;BME280;55457;52.002;5.464;2022-08-11T08:30:15;102097.03;;;26.05;43.92
55187;BME280;55457;52.002;5.464;2022-08-11T08:33:00;102098.69;;;26.06;43.82
55187;BME280;55457;52.002;5.464;2022-08-11T08:35:26;102101.41;;;26.06;43.92
55187;BME280;55457;52.002;5.464;2022-08-11T08:37:55;102095.69;;;26.08;44.00
55187;BME280;55457;52.002;5.464;2022-08-11T08:40:21;102095.44;;;26.09;44.12
55187;BME280;55457;52.002;5.464;2022-08-11T08:42:50;102093.53;;;26.10;43.67
55187;BME280;55457;52.002;5.464;2022-08-11T08:45:18;102088.91;;;26.10;44.00
55187;BME280;55457;52.002;5.464;2022-08-11T08:47:51;102090.56;;;26.11;43.83
55187;BME280;55457;52.002;5.464;2022-08-11T08:50:21;102093.84;;;26.13;43.96
55187;BME280;55457;52.002;5.464;2022-08-11T08:52:59;102085.16;;;26.16;44.01
55187;BME280;55457;52.002;5.464;2022-08-11T08:55:29;102080.53;;;26.17;43.73
55187;BME280;55457;52.002;5.464;2022-08-11T08:57:55;102090.09;;;26.19;43.98
55187;BME280;55457;52.002;5.464;2022-08-11T09:00:24;102080.81;;;26.20;44.01
55187;BME280;55457;52.002;5.464;2022-08-11T09:02:54;102082.25;;;26.23;43.92
55187;BME280;55457;52.002;5.464;2022-08-11T09:05:19;102090.16;;;26.24;44.03
55187;BME280;55457;52.002;5.464;2022-08-11T09:07:46;102083.38;;;26.27;43.72
55187;BME280;55457;52.002;5.464;2022-08-11T09:10:18;102085.84;;;26.28;43.88
55187;BME280;55457;52.002;5.464;2022-08-11T09:12:44;102086.41;;;26.31;43.54
55187;BME280;55457;52.002;5.464;2022-08-11T09:15:11;102083.19;;;26.34;43.60
55187;BME280;55457;52.002;5.464;2022-08-11T09:17:43;102087.31;;;26.36;43.50
55187;BME280;55457;52.002;5.464;2022-08-11T09:20:21;102078.88;;;26.38;43.56
55187;BME280;55457;52.002;5.464;2022-08-11T09:22:50;102086.00;;;26.39;43.44
55187;BME280;55457;52.002;5.464;2022-08-11T09:25:38;102080.06;;;26.42;43.43
55187;BME280;55457;52.002;5.464;2022-08-11T09:28:22;102071.34;;;26.45;43.63
55187;BME280;55457;52.002;5.464;2022-08-11T09:30:50;102072.75;;;26.47;43.40
55187;BME280;55457;52.002;5.464;2022-08-11T09:33:20;102067.56;;;26.51;43.63
55187;BME280;55457;52.002;5.464;2022-08-11T09:35:47;102068.97;;;26.53;43.36
55187;BME280;55457;52.002;5.464;2022-08-11T09:38:15;102064.91;;;26.56;43.24
55187;BME280;55457;52.002;5.464;2022-08-11T09:41:02;102066.03;;;26.60;43.73
55187;BME280;55457;52.002;5.464;2022-08-11T09:43:30;102061.72;;;26.64;43.20
55187;BME280;55457;52.002;5.464;2022-08-11T09:46:14;102063.38;;;26.65;43.38
55187;BME280;55457;52.002;5.464;2022-08-11T09:48:43;102055.72;;;26.67;43.13
55187;BME280;55457;52.002;5.464;2022-08-11T09:51:10;102062.34;;;26.71;42.93
55187;BME280;55457;52.002;5.464;2022-08-11T09:53:41;102056.34;;;26.74;43.01
55187;BME280;55457;52.002;5.464;2022-08-11T09:56:13;102050.34;;;26.77;43.07
55187;BME280;55457;52.002;5.464;2022-08-11T09:58:58;102050.69;;;26.81;42.90
55187;BME280;55457;52.002;5.464;2022-08-11T10:01:33;102051.00;;;26.85;42.87
55187;BME280;55457;52.002;5.464;2022-08-11T10:04:05;102055.94;;;26.88;43.13
55187;BME280;55457;52.002;5.464;2022-08-11T10:06:34;102059.25;;;26.90;42.91
55187;BME280;55457;52.002;5.464;2022-08-11T10:09:22;102059.31;;;26.95;42.85
55187;BME280;55457;52.002;5.464;2022-08-11T10:11:48;102057.69;;;26.99;42.76
55187;BME280;55457;52.002;5.464;2022-08-11T10:14:17;102056.34;;;27.01;42.59
55187;BME280;55457;52.002;5.464;2022-08-11T10:17:06;102058.31;;;27.06;42.58
55187;BME280;55457;52.002;5.464;2022-08-11T10:19:33;102047.13;;;27.08;42.49
55187;BME280;55457;52.002;5.464;2022-08-11T10:22:03;102051.00;;;27.12;42.39
55187;BME280;55457;52.002;5.464;2022-08-11T10:24:48;102049.41;;;27.16;42.49
55187;BME280;55457;52.002;5.464;2022-08-11T10:27:32;102051.59;;;27.19;42.34
55187;BME280;55457;52.002;5.464;2022-08-11T10:29:58;102044.53;;;27.23;42.55
55187;BME280;55457;52.002;5.464;2022-08-11T10:32:43;102038.78;;;27.24;42.16
55187;BME280;55457;52.002;5.464;2022-08-11T10:35:29;102039.66;;;27.30;42.47
55187;BME280;55457;52.002;5.464;2022-08-11T10:37:57;102033.66;;;27.33;42.19
55187;BME280;55457;52.002;5.464;2022-08-11T10:40:23;102027.91;;;27.35;42.36
55187;BME280;55457;52.002;5.464;2022-08-11T10:42:53;102036.44;;;27.38;42.35
55187;BME280;55457;52.002;5.464;2022-08-11T10:45:32;102033.19;;;27.41;42.30
55187;BME280;55457;52.002;5.464;2022-08-11T10:48:16;102028.00;;;27.45;42.15
55187;BME280;55457;52.002;5.464;2022-08-11T10:50:46;102034.59;;;27.49;42.25
55187;BME280;55457;52.002;5.464;2022-08-11T10:53:32;102023.13;;;27.52;41.92
55187;BME280;55457;52.002;5.464;2022-08-11T10:56:17;102017.09;;;27.55;42.08
55187;BME280;55457;52.002;5.464;2022-08-11T10:59:02;102013.84;;;27.58;41.74
55187;BME280;55457;52.002;5.464;2022-08-11T11:01:34;102015.22;;;27.61;42.04
55187;BME280;55457;52.002;5.464;2022-08-11T11:04:04;102009.22;;;27.64;41.74
55187;BME280;55457;52.002;5.464;2022-08-11T11:09:28;102001.88;;;27.69;41.90
55187;BME280;55457;52.002;5.464;2022-08-11T11:11:59;101997.78;;;27.72;41.68
55187;BME280;55457;52.002;5.464;2022-08-11T11:14:46;102003.56;;;27.75;41.82
55187;BME280;55457;52.002;5.464;2022-08-11T11:17:40;101993.19;;;27.77;41.72
55187;BME280;55457;52.002;5.464;2022-08-11T11:20:39;102008.81;;;27.82;41.79
55187;BME280;55457;52.002;5.464;2022-08-11T11:23:19;102005.53;;;27.85;41.44
55187;BME280;55457;52.002;5.464;2022-08-11T11:34:38;101983.41;;;27.97;41.57
55187;BME280;55457;52.002;5.464;2022-08-11T11:37:07;101997.41;;;28.00;41.56
55187;BME280;55457;52.002;5.464;2022-08-11T11:39:34;101990.53;;;28.03;41.33
55187;BME280;55457;52.002;5.464;2022-08-11T11:42:05;101990.00;;;28.06;41.04
55187;BME280;55457;52.002;5.464;2022-08-11T11:44:32;101987.00;;;28.07;41.28
55187;BME280;55457;52.002;5.464;2022-08-11T11:47:00;101982.91;;;28.10;41.06
55187;BME280;55457;52.002;5.464;2022-08-11T11:49:27;101982.34;;;28.13;41.28
55187;BME280;55457;52.002;5.464;2022-08-11T11:51:56;101981.00;;;28.16;40.86
55187;BME280;55457;52.002;5.464;2022-08-11T11:54:31;101980.72;;;28.17;40.85
55187;BME280;55457;52.002;5.464;2022-08-11T11:56:58;101989.53;;;28.19;41.19
55187;BME280;55457;52.002;5.464;2022-08-11T11:59:47;101980.75;;;28.22;41.02
55187;BME280;55457;52.002;5.464;2022-08-11T12:02:31;101974.16;;;28.23;41.10
55187;BME280;55457;52.002;5.464;2022-08-11T12:04:57;101982.97;;;28.25;40.66
55187;BME280;55457;52.002;5.464;2022-08-11T12:07:22;101968.97;;;28.27;41.05
55187;BME280;55457;52.002;5.464;2022-08-11T12:10:07;101973.09;;;28.29;40.71
55187;BME280;55457;52.002;5.464;2022-08-11T12:12:33;101964.63;;;28.31;40.61
55187;BME280;55457;52.002;5.464;2022-08-11T12:15:17;101957.78;;;28.33;40.55
55187;BME280;55457;52.002;5.464;2022-08-11T12:17:43;101962.16;;;28.34;40.88
55187;BME280;55457;52.002;5.464;2022-08-11T12:20:11;101958.88;;;28.38;40.75
55187;BME280;55457;52.002;5.464;2022-08-11T12:22:39;101968.50;;;28.40;40.42
55187;BME280;55457;52.002;5.464;2022-08-11T12:25:24;101946.28;;;28.42;40.75
55187;BME280;55457;52.002;5.464;2022-08-11T12:28:08;101952.31;;;28.44;40.72
55187;BME280;55457;52.002;5.464;2022-08-11T12:30:33;101947.41;;;28.46;40.35
55187;BME280;55457;52.002;5.464;2022-08-11T12:32:59;101935.06;;;28.48;40.65
55187;BME280;55457;52.002;5.464;2022-08-11T12:35:24;101940.25;;;28.50;40.38
55187;BME280;55457;52.002;5.464;2022-08-11T12:37:51;101937.25;;;28.51;40.05
55187;BME280;55457;52.002;5.464;2022-08-11T12:40:24;101946.31;;;28.52;40.10
55187;BME280;55457;52.002;5.464;2022-08-11T12:43:13;101931.22;;;28.54;40.29
55187;BME280;55457;52.002;5.464;2022-08-11T12:46:01;101933.97;;;28.54;40.13
55187;BME280;55457;52.002;5.464;2022-08-11T12:48:31;101925.47;;;28.56;40.43
55187;BME280;55457;52.002;5.464;2022-08-11T12:51:20;101918.06;;;28.56;40.32
55187;BME280;55457;52.002;5.464;2022-08-11T12:54:12;101925.19;;;28.57;40.07
55187;BME280;55457;52.002;5.464;2022-08-11T12:56:42;101929.28;;;28.60;40.19
55187;BME280;55457;52.002;5.464;2022-08-11T12:59:27;101920.00;;;28.61;40.20
55187;BME280;55457;52.002;5.464;2022-08-11T13:02:15;101928.75;;;28.63;40.04
55187;BME280;55457;52.002;5.464;2022-08-11T13:05:05;101930.97;;;28.66;40.22
55187;BME280;55457;52.002;5.464;2022-08-11T13:07:31;101927.13;;;28.67;40.16
55187;BME280;55457;52.002;5.464;2022-08-11T13:09:58;101924.38;;;28.67;39.98
55187;BME280;55457;52.002;5.464;2022-08-11T13:12:25;101915.06;;;28.68;40.17
55187;BME280;55457;52.002;5.464;2022-08-11T13:15:15;101911.22;;;28.69;39.64
55187;BME280;55457;52.002;5.464;2022-08-11T13:17:41;101912.03;;;28.70;39.95
55187;BME280;55457;52.002;5.464;2022-08-11T13:20:11;101910.09;;;28.70;39.96
55187;BME280;55457;52.002;5.464;2022-08-11T13:22:38;101915.88;;;28.69;40.00
55187;BME280;55457;52.002;5.464;2022-08-11T13:25:05;101911.22;;;28.69;39.90
55187;BME280;55457;52.002;5.464;2022-08-11T13:27:31;101903.25;;;28.68;39.79
55187;BME280;55457;52.002;5.464;2022-08-11T13:29:57;101904.09;;;28.68;39.73
55187;BME280;55457;52.002;5.464;2022-08-11T13:32:44;101902.97;;;28.69;39.92
55187;BME280;55457;52.002;5.464;2022-08-11T13:35:12;101899.69;;;28.67;39.69
55187;BME280;55457;52.002;5.464;2022-08-11T13:37:40;101893.09;;;28.68;40.17
55187;BME280;55457;52.002;5.464;2022-08-11T13:40:08;101890.09;;;28.70;40.13
55187;BME280;55457;52.002;5.464;2022-08-11T13:42:34;101889.25;;;28.69;39.93
55187;BME280;55457;52.002;5.464;2022-08-11T13:45:00;101889.25;;;28.69;40.05
55187;BME280;55457;52.002;5.464;2022-08-11T13:47:26;101886.22;;;28.71;40.15
55187;BME280;55457;52.002;5.464;2022-08-11T13:49:53;101887.09;;;28.71;40.14
55187;BME280;55457;52.002;5.464;2022-08-11T13:52:19;101888.72;;;28.72;39.87
55187;BME280;55457;52.002;5.464;2022-08-11T13:54:46;101882.41;;;28.72;40.15
55187;BME280;55457;52.002;5.464;2022-08-11T13:57:13;101887.09;;;28.71;39.69
55187;BME280;55457;52.002;5.464;2022-08-11T13:59:41;101876.13;;;28.71;39.72
55187;BME280;55457;52.002;5.464;2022-08-11T14:02:26;101880.22;;;28.74;39.60
55187;BME280;55457;52.002;5.464;2022-08-11T14:05:02;101881.03;;;28.74;39.51
55187;BME280;55457;52.002;5.464;2022-08-11T14:07:34;101871.69;;;28.75;39.64
55187;BME280;55457;52.002;5.464;2022-08-11T14:10:02;101864.56;;;28.74;39.50
55187;BME280;55457;52.002;5.464;2022-08-11T14:12:30;101861.84;;;28.74;39.90
55187;BME280;55457;52.002;5.464;2022-08-11T14:15:24;101858.28;;;28.74;39.89
55187;BME280;55457;52.002;5.464;2022-08-11T14:18:07;101857.44;;;28.73;39.72
55187;BME280;55457;52.002;5.464;2022-08-11T14:20:35;101866.78;;;28.72;39.87
55187;BME280;55457;52.002;5.464;2022-08-11T14:23:36;101858.81;;;28.71;39.95
55187;BME280;55457;52.002;5.464;2022-08-11T14:26:02;101860.47;;;28.72;40.03
55187;BME280;55457;52.002;5.464;2022-08-11T14:28:47;101849.75;;;28.70;39.54
55187;BME280;55457;52.002;5.464;2022-08-11T14:31:13;101844.28;;;28.70;39.60
55187;BME280;55457;52.002;5.464;2022-08-11T14:33:40;101852.50;;;28.70;39.78
55187;BME280;55457;52.002;5.464;2022-08-11T14:36:08;101846.47;;;28.68;39.74
55187;BME280;55457;52.002;5.464;2022-08-11T14:38:35;101843.75;;;28.68;39.67
55187;BME280;55457;52.002;5.464;2022-08-11T14:41:03;101839.34;;;28.67;39.99
55187;BME280;55457;52.002;5.464;2022-08-11T14:43:47;101833.31;;;28.65;39.93
55187;BME280;55457;52.002;5.464;2022-08-11T14:46:32;101838.78;;;28.65;39.60
55187;BME280;55457;52.002;5.464;2022-08-11T14:49:17;101839.91;;;28.64;39.93
55187;BME280;55457;52.002;5.464;2022-08-11T14:51:45;101839.38;;;28.62;39.95
55187;BME280;55457;52.002;5.464;2022-08-11T14:54:11;101836.63;;;28.62;40.07
55187;BME280;55457;52.002;5.464;2022-08-11T14:56:55;101833.31;;;28.60;39.62
55187;BME280;55457;52.002;5.464;2022-08-11T14:59:22;101828.13;;;28.58;39.78
55187;BME280;55457;52.002;5.464;2022-08-11T15:01:48;101822.63;;;28.58;39.35
55187;BME280;55457;52.002;5.464;2022-08-11T15:04:32;101822.91;;;28.57;39.53
55187;BME280;55457;52.002;5.464;2022-08-11T15:06:58;101818.53;;;28.56;39.89
55187;BME280;55457;52.002;5.464;2022-08-11T15:09:24;101805.34;;;28.53;39.54
55187;BME280;55457;52.002;5.464;2022-08-11T15:11:49;101819.06;;;28.53;39.54
55187;BME280;55457;52.002;5.464;2022-08-11T15:14:34;101814.13;;;28.50;39.68
55187;BME280;55457;52.002;5.464;2022-08-11T15:17:20;101807.00;;;28.49;39.92
55187;BME280;55457;52.002;5.464;2022-08-11T15:19:47;101807.56;;;28.46;40.02
55187;BME280;55457;52.002;5.464;2022-08-11T15:22:32;101812.50;;;28.44;39.60
55187;BME280;55457;52.002;5.464;2022-08-11T15:25:17;101810.31;;;28.41;39.61
55187;BME280;55457;52.002;5.464;2022-08-11T15:27:46;101807.81;;;28.39;39.51
55187;BME280;55457;52.002;5.464;2022-08-11T15:30:30;101812.50;;;28.39;40.05
55187;BME280;55457;52.002;5.464;2022-08-11T15:33:17;101797.44;;;28.36;39.62
55187;BME280;55457;52.002;5.464;2022-08-11T15:36:05;101801.53;;;28.33;39.64
55187;BME280;55457;52.002;5.464;2022-08-11T15:38:54;101795.47;;;28.31;39.70
55187;BME280;55457;52.002;5.464;2022-08-11T15:41:27;101793.03;;;28.30;40.16
55187;BME280;55457;52.002;5.464;2022-08-11T15:44:13;101786.16;;;28.27;40.12
55187;BME280;55457;52.002;5.464;2022-08-11T15:47:01;101791.09;;;28.25;39.69
55187;BME280;55457;52.002;5.464;2022-08-11T15:49:33;101793.28;;;28.23;40.07
55187;BME280;55457;52.002;5.464;2022-08-11T15:52:11;101792.72;;;28.21;39.92
55187;BME280;55457;52.002;5.464;2022-08-11T15:54:40;101789.47;;;28.19;39.97
55187;BME280;55457;52.002;5.464;2022-08-11T15:57:10;101782.59;;;28.17;39.69
55187;BME280;55457;52.002;5.464;2022-08-11T15:59:58;101780.13;;;28.15;39.48
55187;BME280;55457;52.002;5.464;2022-08-11T16:02:47;101784.78;;;28.15;39.96
55187;BME280;55457;52.002;5.464;2022-08-11T16:05:21;101788.88;;;28.12;40.15
55187;BME280;55457;52.002;5.464;2022-08-11T16:07:48;101782.31;;;28.08;40.11
55187;BME280;55457;52.002;5.464;2022-08-11T16:10:16;101783.41;;;28.07;40.00
55187;BME280;55457;52.002;5.464;2022-08-11T16:12:50;101780.94;;;28.05;40.13
55187;BME280;55457;52.002;5.464;2022-08-11T16:15:51;101769.69;;;28.02;40.05
55187;BME280;55457;52.002;5.464;2022-08-11T16:18:54;101772.72;;;28.00;40.03
55187;BME280;55457;52.002;5.464;2022-08-11T16:21:34;101775.75;;;27.99;39.85
55187;BME280;55457;52.002;5.464;2022-08-11T16:24:04;101767.78;;;27.97;40.28
55187;BME280;55457;52.002;5.464;2022-08-11T16:26:31;101763.69;;;27.95;40.06
55187;BME280;55457;52.002;5.464;2022-08-11T16:28:59;101768.34;;;27.94;40.57